Time;durP1;ratioP1;P1;durP2;ratioP2;P2;SDS_P1;SDS_P2;PMS_P1;PMS_P2;Temp;Humidity;BMP_temperature;BMP_pressure;BME280_temperature;BME280_humidity;BME280_pressure;Samples;Min_cycle;Max_cycle;Signal;HPM_P1;HPM_P2
2023/06/10 00:00:56;;;;;;;9.50;6.80;;;;;;;;;;4996046;28;20026;-80
2023/06/10 00:03:23;;;;;;;;;;;;;;;;;;4964912;28;20111;-80
2023/06/10 00:05:50;;;;;;;9.15;8.13;;;;;;;;;;4953775;28;19936;-81
2023/06/10 00:08:19;;;;;;;12.57;8.20;;;;;;;;;;4952067;28;20130;-80
2023/06/10 00:10:46;;;;;;;10.23;8.05;;;;;;;;;;4953849;28;20054;-80
2023/06/10 00:13:12;;;;;;;10.73;7.85;;;;;;;;;;4960819;28;20059;-82
2023/06/10 00:15:38;;;;;;;9.77;7.90;;;;;;;;;;4949987;28;20106;-79
2023/06/10 00:18:05;;;;;;;10.05;7.53;;;;;;;;;;4951746;28;20031;-81
2023/06/10 00:20:31;;;;;;;9.85;7.47;;;;;;;;;;4956109;28;20033;-81
2023/06/10 00:23:01;;;;;;;9.70;7.75;;;;;;;;;;4960483;28;20023;-80
2023/06/10 00:25:27;;;;;;;12.23;8.15;;;;;;;;;;4951795;28;20043;-80
2023/06/10 00:27:58;;;;;;;12.55;8.30;;;;;;;;;;4950946;28;20082;-80
2023/06/10 00:30:24;;;;;;;12.37;8.33;;;;;;;;;;4963915;28;20047;-80
2023/06/10 00:32:50;;;;;;;12.32;7.40;;;;;;;;;;4952117;28;20544;-80
2023/06/10 00:35:16;;;;;;;8.43;7.13;;;;;;;;;;5010209;28;20029;-80
2023/06/10 00:37:42;;;;;;;8.98;7.80;;;;;;;;;;4998893;28;20010;-80
2023/06/10 00:40:09;;;;;;;11.65;8.25;;;;;;;;;;4998343;28;20086;-81
2023/06/10 00:42:35;;;;;;;11.35;8.52;;;;;;;;;;5005417;23;20054;-80
2023/06/10 00:45:01;;;;;;;9.43;8.35;;;;;;;;;;4973041;28;20011;-80
2023/06/10 00:47:28;;;;;;;10.02;8.23;;;;;;;;;;4973101;28;20095;-79
2023/06/10 00:49:55;;;;;;;10.55;7.65;;;;;;;;;;4974095;28;20039;-80
2023/06/10 00:52:25;;;;;;;13.85;8.13;;;;;;;;;;4972007;28;20027;-80
2023/06/10 00:54:51;;;;;;;11.30;8.05;;;;;;;;;;4990160;28;20148;-80
2023/06/10 00:57:19;;;;;;;11.07;8.07;;;;;;;;;;4975935;28;20184;-82
2023/06/10 00:59:49;;;;;;;13.63;8.25;;;;;;;;;;4990077;28;20035;-80
2023/06/10 01:02:15;;;;;;;11.85;7.72;;;;;;;;;;4988475;28;20038;-79
2023/06/10 01:04:44;;;;;;;11.57;8.88;;;;;;;;;;4988413;28;20011;-80
2023/06/10 01:07:43;;;;;;;11.35;8.23;;;;;;;;;;4988217;28;20023;-80
2023/06/10 01:10:17;;;;;;;8.63;7.70;;;;;;;;;;4933768;28;20054;-80
2023/06/10 01:13:02;;;;;;;11.02;8.18;;;;;;;;;;4986565;28;20038;-80
2023/06/10 01:15:28;;;;;;;9.13;7.60;;;;;;;;;;4988561;28;20034;-80
2023/06/10 01:17:57;;;;;;;9.65;7.85;;;;;;;;;;4989037;28;20011;-80
2023/06/10 01:20:24;;;;;;;10.88;8.45;;;;;;;;;;4974649;28;20023;-80
2023/06/10 01:22:57;;;;;;;12.38;8.40;;;;;;;;;;4971721;28;20031;-80
2023/06/10 01:25:32;;;;;;;16.10;8.18;;;;;;;;;;4986628;28;20033;-80
2023/06/10 01:28:03;;;;;;;10.30;7.95;;;;;;;;;;4987171;28;20023;-81
2023/06/10 01:30:35;;;;;;;13.82;8.15;;;;;;;;;;4988539;28;20085;-80
2023/06/10 01:33:02;;;;;;;10.50;7.80;;;;;;;;;;4973773;28;20083;-80
2023/06/10 01:35:29;;;;;;;9.82;7.95;;;;;;;;;;4991811;28;20043;-81
2023/06/10 01:37:57;;;;;;;12.25;8.70;;;;;;;;;;4974468;28;20031;-82
2023/06/10 01:40:27;;;;;;;9.63;8.35;;;;;;;;;;4992844;28;20049;-79
2023/06/10 01:42:53;;;;;;;10.00;8.25;;;;;;;;;;4990278;28;20177;-80
2023/06/10 01:45:21;;;;;;;11.82;8.45;;;;;;;;;;4993242;28;20027;-81
2023/06/10 01:47:47;;;;;;;9.68;8.15;;;;;;;;;;4991268;28;20027;-80
2023/06/10 01:50:14;;;;;;;14.32;8.43;;;;;;;;;;4991398;28;20027;-80
2023/06/10 01:52:40;;;;;;;9.32;8.20;;;;;;;;;;4990762;28;20034;-80
2023/06/10 01:55:06;;;;;;;9.27;8.27;;;;;;;;;;4991654;28;20031;-81
2023/06/10 01:57:34;;;;;;;11.18;8.63;;;;;;;;;;4975868;28;20039;-80
2023/06/10 02:00:03;;;;;;;14.02;8.57;;;;;;;;;;4974142;28;20030;-80
2023/06/10 02:02:29;;;;;;;11.55;8.23;;;;;;;;;;4974666;28;20033;-80
2023/06/10 02:04:55;;;;;;;11.88;9.35;;;;;;;;;;4989280;28;20038;-80
2023/06/10 02:07:21;;;;;;;10.13;7.85;;;;;;;;;;4991345;28;20027;-80
2023/06/10 02:09:47;;;;;;;11.30;8.35;;;;;;;;;;4990891;28;20026;-80
2023/06/10 02:12:13;;;;;;;10.60;8.00;;;;;;;;;;4989657;28;20049;-79
2023/06/10 02:14:41;;;;;;;11.15;8.70;;;;;;;;;;4990154;28;20034;-79
2023/06/10 02:17:12;;;;;;;10.98;8.35;;;;;;;;;;4992176;28;20038;-80
2023/06/10 02:19:42;;;;;;;13.18;8.85;;;;;;;;;;4989774;28;20069;-81
2023/06/10 02:22:08;;;;;;;10.98;8.80;;;;;;;;;;4988445;28;20047;-80
2023/06/10 02:24:36;;;;;;;11.90;8.43;;;;;;;;;;4991225;28;20064;-81
2023/06/10 02:27:04;;;;;;;11.40;7.93;;;;;;;;;;4991995;28;20015;-80
2023/06/10 02:29:31;;;;;;;11.30;8.43;;;;;;;;;;4991998;28;20049;-82
2023/06/10 02:31:57;;;;;;;10.77;8.18;;;;;;;;;;4991856;28;20030;-81
2023/06/10 02:34:23;;;;;;;10.05;8.32;;;;;;;;;;4974726;28;20062;-81
2023/06/10 02:36:51;;;;;;;10.15;7.78;;;;;;;;;;4989063;28;20015;-79
2023/06/10 02:39:20;;;;;;;10.85;8.98;;;;;;;;;;4991275;28;20035;-80
2023/06/10 02:42:04;;;;;;;13.18;8.88;;;;;;;;;;4973592;28;20198;-81
2023/06/10 02:44:44;;;;;;;10.95;9.38;;;;;;;;;;4990727;28;20022;-83
2023/06/10 02:47:10;;;;;;;11.70;9.57;;;;;;;;;;4989819;28;20111;-80
2023/06/10 02:49:36;;;;;;;11.85;8.70;;;;;;;;;;4974661;28;20091;-80
2023/06/10 02:52:03;;;;;;;14.38;9.18;;;;;;;;;;4973080;28;20034;-82
2023/06/10 02:54:31;;;;;;;9.15;8.15;;;;;;;;;;4976078;28;20055;-82
2023/06/10 02:57:02;;;;;;;11.68;9.30;;;;;;;;;;4991535;28;20019;-80
2023/06/10 02:59:28;;;;;;;10.82;9.05;;;;;;;;;;4989412;28;20027;-81
2023/06/10 03:01:54;;;;;;;10.15;8.15;;;;;;;;;;4990433;28;20015;-81
2023/06/10 03:04:25;;;;;;;10.98;9.00;;;;;;;;;;4991331;28;20018;-80
2023/06/10 03:06:53;;;;;;;11.25;8.98;;;;;;;;;;4988924;28;20011;-81
2023/06/10 03:09:19;;;;;;;10.95;9.27;;;;;;;;;;4990103;28;20050;-81
2023/06/10 03:11:53;;;;;;;12.48;9.25;;;;;;;;;;4975040;28;20035;-80
2023/06/10 03:14:19;;;;;;;11.80;9.32;;;;;;;;;;4991098;28;20078;-82
2023/06/10 03:16:48;;;;;;;14.18;10.05;;;;;;;;;;4991886;28;20039;-81
2023/06/10 03:19:14;;;;;;;13.93;9.57;;;;;;;;;;4978334;28;20038;-80
2023/06/10 03:21:45;;;;;;;13.95;9.68;;;;;;;;;;4991308;28;20059;-79
2023/06/10 03:24:13;;;;;;;12.15;8.98;;;;;;;;;;4991417;28;20015;-82
2023/06/10 03:26:39;;;;;;;19.27;9.63;;;;;;;;;;4990726;28;20027;-81
2023/06/10 03:29:05;;;;;;;12.15;9.10;;;;;;;;;;4975717;28;20038;-81
2023/06/10 03:31:31;;;;;;;13.05;8.80;;;;;;;;;;4990061;28;20027;-82
2023/06/10 03:33:58;;;;;;;10.30;9.20;;;;;;;;;;4988970;28;20091;-81
2023/06/10 03:36:24;;;;;;;13.65;9.02;;;;;;;;;;4972832;28;20279;-80
2023/06/10 03:38:52;;;;;;;10.25;9.10;;;;;;;;;;4992433;28;20023;-80
2023/06/10 03:41:21;;;;;;;10.27;9.18;;;;;;;;;;4974668;28;20022;-80
2023/06/10 03:43:47;;;;;;;11.23;9.27;;;;;;;;;;4989912;28;20090;-80
2023/06/10 03:46:13;;;;;;;11.07;8.80;;;;;;;;;;4990906;28;20023;-80
2023/06/10 03:48:47;;;;;;;9.85;8.45;;;;;;;;;;4975060;28;20108;-80
2023/06/10 03:51:15;;;;;;;14.20;8.82;;;;;;;;;;4991961;28;20023;-80
2023/06/10 03:53:46;;;;;;;11.80;9.95;;;;;;;;;;4989004;28;20054;-79
2023/06/10 03:56:12;;;;;;;13.65;9.70;;;;;;;;;;4972820;28;20014;-81
2023/06/10 03:58:38;;;;;;;15.07;9.40;;;;;;;;;;4972977;28;20027;-80
2023/06/10 04:01:07;;;;;;;13.15;8.52;;;;;;;;;;4974361;28;20054;-80
2023/06/10 04:03:33;;;;;;;11.55;9.10;;;;;;;;;;4990588;28;20023;-80
2023/06/10 04:06:04;;;;;;;10.40;9.02;;;;;;;;;;4990368;28;20027;-81
2023/06/10 04:08:31;;;;;;;10.80;9.00;;;;;;;;;;4988509;28;20015;-81
2023/06/10 04:10:59;;;;;;;10.65;9.50;;;;;;;;;;4989785;28;20042;-82
2023/06/10 04:13:28;;;;;;;12.40;9.57;;;;;;;;;;4988996;28;20026;-81
2023/06/10 04:15:56;;;;;;;10.93;8.93;;;;;;;;;;4989377;28;20068;-80
2023/06/10 04:18:25;;;;;;;13.00;9.70;;;;;;;;;;4990190;28;20023;-80
2023/06/10 04:20:51;;;;;;;14.15;9.13;;;;;;;;;;4990074;28;20098;-80
2023/06/10 04:23:20;;;;;;;11.15;9.55;;;;;;;;;;4987988;28;20024;-80
2023/06/10 04:25:46;;;;;;;13.50;10.02;;;;;;;;;;4990285;28;20051;-80
2023/06/10 04:28:15;;;;;;;9.95;8.93;;;;;;;;;;4989306;28;20066;-80
2023/06/10 04:30:41;;;;;;;13.93;9.48;;;;;;;;;;4989228;28;20107;-81
2023/06/10 04:33:08;;;;;;;18.17;10.18;;;;;;;;;;4990279;28;20027;-80
2023/06/10 04:35:35;;;;;;;19.33;10.95;;;;;;;;;;4990097;28;20031;-81
2023/06/10 04:38:03;;;;;;;13.55;10.45;;;;;;;;;;4971825;28;20042;-80
2023/06/10 04:40:31;;;;;;;10.93;9.77;;;;;;;;;;4973656;28;20026;-80
2023/06/10 04:42:57;;;;;;;12.65;9.68;;;;;;;;;;4989639;28;21094;-82
2023/06/10 04:45:29;;;;;;;15.55;9.40;;;;;;;;;;4971903;28;20031;-81
2023/06/10 04:47:58;;;;;;;12.80;10.02;;;;;;;;;;4973135;28;20133;-81
2023/06/10 04:50:26;;;;;;;12.50;9.70;;;;;;;;;;4989528;28;20035;-80
2023/06/10 04:52:52;;;;;;;13.95;10.23;;;;;;;;;;4987963;28;20014;-81
2023/06/10 04:55:18;;;;;;;12.90;9.80;;;;;;;;;;4976584;28;20046;-80
2023/06/10 04:57:45;;;;;;;14.35;10.88;;;;;;;;;;4988493;28;20022;-81
2023/06/10 05:00:11;;;;;;;11.45;9.90;;;;;;;;;;4988513;28;20130;-80
2023/06/10 05:02:37;;;;;;;12.48;9.32;;;;;;;;;;4988216;28;20015;-79
2023/06/10 05:05:06;;;;;;;12.75;10.05;;;;;;;;;;4986912;28;20015;-79
2023/06/10 05:07:32;;;;;;;11.70;9.07;;;;;;;;;;4989317;28;20086;-80
2023/06/10 05:10:00;;;;;;;13.25;9.82;;;;;;;;;;4975554;28;20046;-80
2023/06/10 05:12:26;;;;;;;17.33;11.55;;;;;;;;;;4974279;28;20035;-79
2023/06/10 05:14:53;;;;;;;10.90;9.10;;;;;;;;;;4991396;28;20027;-79
2023/06/10 05:17:20;;;;;;;13.43;10.73;;;;;;;;;;4958781;28;20066;-80
2023/06/10 05:19:47;;;;;;;13.88;10.35;;;;;;;;;;4977356;28;20059;-79
2023/06/10 05:22:14;;;;;;;17.70;14.35;;;;;;;;;;4989871;28;20026;-81
2023/06/10 05:24:40;;;;;;;15.75;11.18;;;;;;;;;;4973470;28;20050;-79
2023/06/10 05:27:06;;;;;;;12.48;10.13;;;;;;;;;;4975012;28;20074;-80
2023/06/10 05:29:35;;;;;;;16.10;10.00;;;;;;;;;;4975996;28;20110;-79
2023/06/10 05:32:03;;;;;;;15.00;10.77;;;;;;;;;;4993207;28;20115;-79
2023/06/10 05:34:32;;;;;;;16.80;12.20;;;;;;;;;;4991715;28;20055;-79
2023/06/10 05:36:58;;;;;;;12.55;9.68;;;;;;;;;;4992929;28;20041;-79
2023/06/10 05:39:24;;;;;;;20.05;14.52;;;;;;;;;;4974600;28;20034;-79
2023/06/10 05:41:50;;;;;;;12.32;9.55;;;;;;;;;;4991184;28;20058;-82
2023/06/10 05:44:16;;;;;;;12.00;10.48;;;;;;;;;;4994082;28;20058;-78
2023/06/10 05:46:52;;;;;;;14.02;10.35;;;;;;;;;;4992353;28;20019;-80
2023/06/10 05:49:18;;;;;;;12.23;10.63;;;;;;;;;;4975660;28;20062;-80
2023/06/10 05:51:44;;;;;;;11.02;9.63;;;;;;;;;;4975542;28;20030;-79
2023/06/10 05:54:12;;;;;;;12.57;9.15;;;;;;;;;;4989206;28;20015;-78
2023/06/10 05:56:38;;;;;;;17.20;11.80;;;;;;;;;;4993221;28;20026;-79
2023/06/10 05:59:05;;;;;;;14.43;11.27;;;;;;;;;;4992845;28;20051;-79
2023/06/10 06:01:31;;;;;;;15.65;10.68;;;;;;;;;;4991545;28;20039;-79
2023/06/10 06:03:57;;;;;;;10.25;9.13;;;;;;;;;;4992019;28;20054;-81
2023/06/10 06:06:23;;;;;;;9.90;8.52;;;;;;;;;;4989825;28;20019;-80
2023/06/10 06:08:49;;;;;;;11.73;9.25;;;;;;;;;;4991195;28;20027;-79
2023/06/10 06:11:15;;;;;;;12.48;9.73;;;;;;;;;;4989121;28;20105;-79
2023/06/10 06:13:42;;;;;;;10.82;7.22;;;;;;;;;;4992427;28;20038;-79
2023/06/10 06:16:08;;;;;;;9.90;8.07;;;;;;;;;;4975555;28;20030;-79
2023/06/10 06:18:34;;;;;;;13.02;7.75;;;;;;;;;;4991818;28;20026;-81
2023/06/10 06:21:00;;;;;;;11.35;8.35;;;;;;;;;;4990014;28;20045;-80
2023/06/10 06:23:26;;;;;;;10.18;7.82;;;;;;;;;;4992509;28;20063;-81
2023/06/10 06:25:54;;;;;;;10.70;7.82;;;;;;;;;;4976459;28;20026;-80
2023/06/10 06:28:21;;;;;;;8.70;6.63;;;;;;;;;;4991991;28;20026;-80
2023/06/10 06:30:48;;;;;;;8.82;6.53;;;;;;;;;;4991060;28;20029;-80
2023/06/10 06:33:14;;;;;;;9.23;6.70;;;;;;;;;;4991538;28;20015;-80
2023/06/10 06:35:43;;;;;;;8.07;6.57;;;;;;;;;;4975449;28;20049;-78
2023/06/10 06:38:09;;;;;;;8.95;6.20;;;;;;;;;;4974497;28;20079;-81
2023/06/10 06:40:35;;;;;;;6.82;5.65;;;;;;;;;;4973461;28;20046;-81
2023/06/10 06:43:01;;;;;;;11.95;7.15;;;;;;;;;;4991367;28;20037;-82
2023/06/10 06:45:27;;;;;;;10.25;6.72;;;;;;;;;;4974847;28;20035;-79
2023/06/10 06:47:53;;;;;;;6.35;4.88;;;;;;;;;;4975209;28;20020;-83
2023/06/10 06:50:19;;;;;;;9.63;5.72;;;;;;;;;;4975785;28;20050;-83
2023/06/10 06:52:45;;;;;;;8.15;5.15;;;;;;;;;;4972184;28;20031;-83
2023/06/10 06:55:11;;;;;;;7.00;5.40;;;;;;;;;;4985656;28;20107;-83
2023/06/10 06:57:37;;;;;;;12.43;5.60;;;;;;;;;;4987088;28;20035;-82
2023/06/10 07:00:04;;;;;;;6.85;5.07;;;;;;;;;;4987480;28;20038;-82
2023/06/10 07:02:31;;;;;;;7.68;5.20;;;;;;;;;;4964948;28;20038;-83
2023/06/10 07:04:58;;;;;;;6.20;5.20;;;;;;;;;;4963656;28;20019;-84
2023/06/10 07:07:24;;;;;;;9.70;5.50;;;;;;;;;;4960074;28;20030;-86
2023/06/10 07:09:50;;;;;;;6.35;5.13;;;;;;;;;;4960968;28;20065;-85
2023/06/10 07:12:17;;;;;;;8.02;5.78;;;;;;;;;;4973958;28;20031;-85
2023/06/10 07:14:43;;;;;;;6.60;5.03;;;;;;;;;;4977115;28;20351;-85
2023/06/10 07:17:09;;;;;;;7.60;5.50;;;;;;;;;;4958330;28;20031;-86
2023/06/10 07:19:37;;;;;;;7.82;5.25;;;;;;;;;;4952378;28;20034;-84
2023/06/10 07:22:04;;;;;;;9.07;5.47;;;;;;;;;;4968802;28;20028;-87
2023/06/10 07:24:30;;;;;;;6.90;4.80;;;;;;;;;;4951886;28;20060;-87
2023/06/10 07:26:58;;;;;;;8.80;6.22;;;;;;;;;;4963529;28;20039;-88
2023/06/10 07:29:24;;;;;;;10.27;6.03;;;;;;;;;;4952740;28;20031;-88
2023/06/10 07:31:50;;;;;;;7.82;5.43;;;;;;;;;;4966436;28;20023;-86
2023/06/10 07:34:19;;;;;;;8.18;4.85;;;;;;;;;;4967596;28;20034;-89
2023/06/10 07:36:45;;;;;;;9.65;4.60;;;;;;;;;;4967876;28;20019;-87
2023/06/10 07:39:11;;;;;;;7.35;5.00;;;;;;;;;;4967006;28;20022;-88
2023/06/10 07:41:39;;;;;;;8.07;5.28;;;;;;;;;;4964271;28;20027;-88
2023/06/10 07:44:05;;;;;;;7.75;4.70;;;;;;;;;;4956907;28;20036;-87
2023/06/10 07:46:31;;;;;;;7.90;4.95;;;;;;;;;;4964879;28;20041;-87
2023/06/10 07:48:57;;;;;;;11.35;5.80;;;;;;;;;;4962661;28;20031;-88
2023/06/10 07:51:23;;;;;;;11.48;7.07;;;;;;;;;;4964794;28;20027;-88
2023/06/10 07:53:49;;;;;;;5.00;4.15;;;;;;;;;;4966775;28;20054;-87
2023/06/10 07:56:15;;;;;;;13.70;8.25;;;;;;;;;;4967592;28;20202;-88
2023/06/10 07:58:41;;;;;;;7.93;5.95;;;;;;;;;;4968330;28;20038;-88
2023/06/10 08:01:09;;;;;;;6.28;4.95;;;;;;;;;;4966280;28;20023;-87
2023/06/10 08:03:36;;;;;;;7.30;5.15;;;;;;;;;;4964844;28;20035;-87
2023/06/10 08:06:02;;;;;;;8.35;5.38;;;;;;;;;;4965528;28;20027;-88
2023/06/10 08:08:28;;;;;;;8.73;6.97;;;;;;;;;;4962659;28;20129;-87
2023/06/10 08:10:54;;;;;;;8.23;6.18;;;;;;;;;;4968825;28;20062;-86
2023/06/10 08:13:20;;;;;;;12.52;5.80;;;;;;;;;;4964859;28;20027;-88
2023/06/10 08:15:50;;;;;;;9.77;6.43;;;;;;;;;;4952270;28;20109;-87
2023/06/10 08:18:16;;;;;;;7.45;5.00;;;;;;;;;;4966315;28;20030;-87
2023/06/10 08:20:42;;;;;;;10.13;6.35;;;;;;;;;;4971480;28;21754;-87
2023/06/10 08:23:08;;;;;;;13.18;5.93;;;;;;;;;;4966282;28;20039;-86
2023/06/10 08:25:34;;;;;;;8.45;5.35;;;;;;;;;;4957119;28;20082;-87
2023/06/10 08:28:02;;;;;;;10.18;5.80;;;;;;;;;;4966651;28;20039;-88
2023/06/10 08:30:28;;;;;;;7.95;5.93;;;;;;;;;;4967954;28;20050;-88
2023/06/10 08:32:55;;;;;;;6.93;5.40;;;;;;;;;;4963403;28;21697;-87
2023/06/10 08:35:21;;;;;;;10.05;5.32;;;;;;;;;;4968131;28;20040;-88
2023/06/10 08:37:49;;;;;;;9.98;6.25;;;;;;;;;;4969146;28;20118;-88
2023/06/10 08:40:18;;;;;;;9.63;5.45;;;;;;;;;;4964457;28;20034;-88
2023/06/10 08:42:46;;;;;;;7.00;5.30;;;;;;;;;;4971003;28;20055;-88
2023/06/10 08:45:19;;;;;;;7.45;5.45;;;;;;;;;;4952070;28;20195;-87
2023/06/10 08:47:46;;;;;;;9.57;5.60;;;;;;;;;;4968036;28;20039;-82
2023/06/10 08:50:15;;;;;;;7.85;5.15;;;;;;;;;;4974420;28;20028;-87
2023/06/10 08:52:44;;;;;;;7.55;5.78;;;;;;;;;;4972132;28;20463;-87
2023/06/10 08:55:17;;;;;;;6.68;5.32;;;;;;;;;;4972495;28;20015;-88
2023/06/10 08:57:45;;;;;;;7.75;5.72;;;;;;;;;;4967386;28;20050;-88
2023/06/10 09:00:11;;;;;;;7.00;5.53;;;;;;;;;;4968028;28;20033;-87
2023/06/10 09:02:38;;;;;;;9.32;5.40;;;;;;;;;;4954779;28;20038;-87
2023/06/10 09:05:07;;;;;;;6.82;5.38;;;;;;;;;;4965363;28;20023;-87
2023/06/10 09:07:35;;;;;;;8.02;6.10;;;;;;;;;;4966975;28;20049;-87
2023/06/10 09:10:03;;;;;;;9.27;5.90;;;;;;;;;;4968623;28;20026;-88
2023/06/10 09:12:29;;;;;;;7.47;5.57;;;;;;;;;;4971074;28;20037;-88
2023/06/10 09:14:56;;;;;;;7.50;5.50;;;;;;;;;;4968025;28;20031;-88
2023/06/10 09:17:22;;;;;;;7.05;5.55;;;;;;;;;;4967685;28;20028;-86
2023/06/10 09:19:49;;;;;;;10.35;5.55;;;;;;;;;;4966453;28;20023;-86
2023/06/10 09:22:15;;;;;;;7.22;5.72;;;;;;;;;;4963066;28;20031;-86
2023/06/10 09:24:41;;;;;;;7.50;6.28;;;;;;;;;;4967420;28;20031;-88
2023/06/10 09:27:08;;;;;;;8.90;5.30;;;;;;;;;;4964530;28;20031;-86
2023/06/10 09:29:49;;;;;;;11.05;6.00;;;;;;;;;;4966700;28;20046;-87
2023/06/10 09:32:15;;;;;;;8.35;5.22;;;;;;;;;;4969617;28;20062;-86
2023/06/10 09:34:41;;;;;;;12.88;6.13;;;;;;;;;;4968389;28;20035;-87
2023/06/10 09:37:08;;;;;;;6.43;5.00;;;;;;;;;;4969557;28;20454;-87
2023/06/10 09:39:34;;;;;;;8.63;5.70;;;;;;;;;;4964645;28;20167;-85
2023/06/10 09:42:00;;;;;;;9.27;5.18;;;;;;;;;;4970197;28;20121;-88
2023/06/10 09:44:27;;;;;;;7.85;5.85;;;;;;;;;;4971708;28;20034;-87
2023/06/10 09:46:54;;;;;;;7.43;6.07;;;;;;;;;;4966400;28;20023;-87
2023/06/10 09:49:20;;;;;;;8.15;5.88;;;;;;;;;;4970279;28;20042;-87
2023/06/10 09:51:50;;;;;;;7.50;5.80;;;;;;;;;;4970033;28;20564;-86
2023/06/10 09:54:18;;;;;;;8.73;6.28;;;;;;;;;;4973001;28;20022;-85
2023/06/10 09:56:47;;;;;;;8.15;6.07;;;;;;;;;;4967452;28;20023;-87
2023/06/10 09:59:13;;;;;;;6.70;5.85;;;;;;;;;;4967712;28;20026;-87
2023/06/10 10:01:39;;;;;;;7.15;5.75;;;;;;;;;;4967246;28;20082;-87
2023/06/10 10:04:05;;;;;;;6.00;5.40;;;;;;;;;;4972273;28;20339;-87
2023/06/10 10:06:31;;;;;;;6.43;5.55;;;;;;;;;;4969062;28;20054;-87
2023/06/10 10:08:57;;;;;;;7.50;5.13;;;;;;;;;;4970235;28;20020;-87
2023/06/10 10:11:23;;;;;;;7.55;5.10;;;;;;;;;;4965085;28;20027;-87
2023/06/10 10:13:53;;;;;;;8.57;5.82;;;;;;;;;;4969711;28;20039;-86
2023/06/10 10:16:27;;;;;;;8.10;5.18;;;;;;;;;;4966804;28;20034;-87
2023/06/10 10:18:55;;;;;;;9.30;5.18;;;;;;;;;;4964742;28;20034;-87
2023/06/10 10:21:25;;;;;;;8.57;5.47;;;;;;;;;;4968708;28;20023;-86
2023/06/10 10:24:10;;;;;;;19.02;8.20;;;;;;;;;;4968371;28;20027;-83
2023/06/10 10:26:36;;;;;;;12.88;5.63;;;;;;;;;;4967305;28;20043;-87
2023/06/10 10:29:17;;;;;;;12.57;6.25;;;;;;;;;;4968815;28;20039;-85
2023/06/10 10:31:44;;;;;;;8.88;5.63;;;;;;;;;;4968830;28;20455;-84
2023/06/10 10:34:13;;;;;;;6.05;5.25;;;;;;;;;;4968320;28;20045;-82
2023/06/10 10:36:39;;;;;;;6.63;5.47;;;;;;;;;;4964259;28;20122;-83
2023/06/10 10:39:05;;;;;;;10.18;5.97;;;;;;;;;;4971877;28;20035;-83
2023/06/10 10:41:32;;;;;;;10.85;6.18;;;;;;;;;;4971953;28;20137;-84
2023/06/10 10:44:00;;;;;;;6.78;5.43;;;;;;;;;;4965938;28;20030;-83
2023/06/10 10:46:26;;;;;;;8.13;5.80;;;;;;;;;;4968254;28;20033;-84
2023/06/10 10:48:57;;;;;;;7.32;5.38;;;;;;;;;;4972755;28;20105;-84
2023/06/10 10:51:24;;;;;;;7.30;5.75;;;;;;;;;;4965548;28;20042;-81
2023/06/10 10:54:10;;;;;;;6.07;5.22;;;;;;;;;;4967422;28;20070;-83
2023/06/10 10:56:36;;;;;;;7.97;5.05;;;;;;;;;;4963622;28;20106;-83
2023/06/10 10:59:05;;;;;;;9.73;5.35;;;;;;;;;;4966387;28;20054;-81
2023/06/10 11:01:41;;;;;;;7.25;4.40;;;;;;;;;;4966571;28;20470;-83
2023/06/10 11:04:09;;;;;;;6.15;4.57;;;;;;;;;;4966931;28;20118;-85
2023/06/10 11:06:35;;;;;;;6.88;5.18;;;;;;;;;;4965985;28;20031;-83
2023/06/10 11:09:21;;;;;;;5.85;4.70;;;;;;;;;;4966474;28;20023;-84
2023/06/10 11:11:50;;;;;;;8.95;4.65;;;;;;;;;;4956924;28;20447;-83
2023/06/10 11:14:28;;;;;;;6.07;4.72;;;;;;;;;;4967561;28;20082;-84
2023/06/10 11:16:56;;;;;;;7.05;4.85;;;;;;;;;;4965490;28;20027;-84
2023/06/10 11:19:33;;;;;;;5.45;4.78;;;;;;;;;;4967043;28;20030;-84
2023/06/10 11:22:03;;;;;;;7.65;5.13;;;;;;;;;;4969033;28;20049;-83
2023/06/10 11:24:30;;;;;;;8.90;5.10;;;;;;;;;;4967488;28;20066;-83
2023/06/10 11:27:15;;;;;;;7.93;4.43;;;;;;;;;;4968491;28;20034;-84
2023/06/10 11:29:55;;;;;;;8.93;4.70;;;;;;;;;;4965533;28;20102;-84
2023/06/10 11:32:21;;;;;;;13.93;5.07;;;;;;;;;;4961934;28;20023;-84
2023/06/10 11:34:52;;;;;;;12.05;4.95;;;;;;;;;;4955112;28;20037;-84
2023/06/10 11:37:18;;;;;;;;;;;;;;;;;;4966830;28;20078;-83
2023/06/10 11:39:44;;;;;;;7.40;4.93;;;;;;;;;;4951796;28;20008;-84
2023/06/10 11:42:11;;;;;;;5.25;4.63;;;;;;;;;;4967886;28;20056;-84
2023/06/10 11:44:37;;;;;;;8.55;4.85;;;;;;;;;;4952053;28;20377;-83
2023/06/10 11:47:03;;;;;;;7.63;5.18;;;;;;;;;;4951402;28;20039;-87
2023/06/10 11:49:29;;;;;;;6.53;5.25;;;;;;;;;;4965865;28;20049;-89
2023/06/10 11:51:56;;;;;;;5.80;4.53;;;;;;;;;;4962695;28;20472;-89
2023/06/10 11:54:22;;;;;;;7.38;4.45;;;;;;;;;;4968979;28;20466;-92
2023/06/10 11:56:48;;;;;;;7.57;4.82;;;;;;;;;;4964679;28;20031;-85
2023/06/10 11:59:14;;;;;;;8.48;4.10;;;;;;;;;;4947510;28;20562;-89
2023/06/10 12:01:45;;;;;;;4.93;4.07;;;;;;;;;;4965727;28;20038;-89
2023/06/10 12:04:12;;;;;;;6.72;4.20;;;;;;;;;;4965451;28;20456;-86
2023/06/10 12:06:49;;;;;;;6.07;4.45;;;;;;;;;;4969358;28;20035;-88
2023/06/10 12:09:19;;;;;;;6.10;4.60;;;;;;;;;;4967551;28;20041;-89
2023/06/10 12:11:45;;;;;;;6.65;4.22;;;;;;;;;;4965842;28;20031;-88
2023/06/10 12:14:11;;;;;;;6.20;4.70;;;;;;;;;;4966062;28;20015;-88
2023/06/10 12:16:37;;;;;;;6.93;4.80;;;;;;;;;;4964312;28;20018;-88
2023/06/10 12:19:04;;;;;;;8.77;5.80;;;;;;;;;;4967730;28;20019;-88
2023/06/10 12:21:31;;;;;;;6.32;4.35;;;;;;;;;;4962984;28;20042;-89
2023/06/10 12:24:01;;;;;;;7.40;4.80;;;;;;;;;;4965578;28;20336;-86
2023/06/10 12:26:40;;;;;;;7.35;4.82;;;;;;;;;;4967493;28;20481;-86
2023/06/10 12:29:13;;;;;;;7.38;4.35;;;;;;;;;;4966950;28;20113;-89
2023/06/10 12:31:55;;;;;;;10.45;4.68;;;;;;;;;;4970084;28;20110;-89
2023/06/10 12:34:29;;;;;;;5.68;4.22;;;;;;;;;;4964935;28;20041;-87
2023/06/10 12:36:55;;;;;;;4.65;4.25;;;;;;;;;;4965307;28;20026;-89
2023/06/10 12:39:21;;;;;;;6.80;4.43;;;;;;;;;;4965897;28;20118;-83
2023/06/10 12:41:51;;;;;;;5.15;4.43;;;;;;;;;;4964498;28;20038;-85
2023/06/10 12:44:17;;;;;;;7.85;4.65;;;;;;;;;;4967780;28;20019;-84
2023/06/10 12:46:43;;;;;;;7.22;4.45;;;;;;;;;;4964930;28;20085;-84
2023/06/10 12:49:19;;;;;;;5.50;4.47;;;;;;;;;;4961687;28;20023;-82
2023/06/10 12:51:46;;;;;;;6.45;4.38;;;;;;;;;;4954821;28;20046;-83
2023/06/10 12:54:12;;;;;;;7.22;3.92;;;;;;;;;;4967779;28;20023;-84
2023/06/10 12:56:38;;;;;;;7.53;4.18;;;;;;;;;;4951274;28;20025;-84
2023/06/10 12:59:04;;;;;;;6.03;4.53;;;;;;;;;;4949814;28;20054;-84
2023/06/10 13:01:31;;;;;;;5.85;3.88;;;;;;;;;;4967649;28;20432;-83
2023/06/10 13:03:57;;;;;;;5.88;3.85;;;;;;;;;;4965167;28;21063;-83
2023/06/10 13:06:23;;;;;;;6.72;4.03;;;;;;;;;;4962459;28;20497;-84
2023/06/10 13:08:50;;;;;;;5.93;3.60;;;;;;;;;;4967554;28;20027;-84
2023/06/10 13:11:16;;;;;;;4.72;3.95;;;;;;;;;;4965013;28;20034;-84
2023/06/10 13:13:42;;;;;;;9.30;3.95;;;;;;;;;;4963081;28;20054;-84
2023/06/10 13:16:08;;;;;;;7.90;4.25;;;;;;;;;;4965835;28;20019;-83
2023/06/10 13:18:37;;;;;;;5.25;3.58;;;;;;;;;;4944387;28;20019;-83
2023/06/10 13:21:06;;;;;;;6.78;4.15;;;;;;;;;;4963456;28;20054;-83
2023/06/10 13:23:32;;;;;;;7.32;3.75;;;;;;;;;;4965542;28;20042;-82
2023/06/10 13:25:58;;;;;;;5.68;3.95;;;;;;;;;;4966567;28;20035;-89
2023/06/10 13:28:25;;;;;;;5.82;3.47;;;;;;;;;;4968882;28;20058;-84
2023/06/10 13:30:51;;;;;;;4.53;3.67;;;;;;;;;;4966922;28;20034;-87
2023/06/10 13:33:17;;;;;;;6.47;4.10;;;;;;;;;;4969388;28;20041;-87
2023/06/10 13:35:43;;;;;;;6.20;3.95;;;;;;;;;;4967380;28;20042;-88
2023/06/10 13:38:09;;;;;;;5.55;3.88;;;;;;;;;;4971896;28;20043;-88
2023/06/10 13:40:35;;;;;;;5.63;3.58;;;;;;;;;;4970022;28;21233;-85
2023/06/10 13:43:02;;;;;;;5.03;4.40;;;;;;;;;;4973475;28;20045;-88
2023/06/10 13:45:28;;;;;;;7.03;4.18;;;;;;;;;;4970107;28;20050;-90
2023/06/10 13:47:54;;;;;;;7.47;4.13;;;;;;;;;;4965394;28;20042;-88
2023/06/10 13:50:20;;;;;;;6.03;4.10;;;;;;;;;;4966137;28;20034;-87
2023/06/10 13:52:48;;;;;;;4.63;3.58;;;;;;;;;;4968376;28;20122;-86
2023/06/10 13:55:15;;;;;;;9.88;4.75;;;;;;;;;;4958293;28;20018;-87
2023/06/10 13:57:41;;;;;;;4.97;3.55;;;;;;;;;;4966138;28;20183;-93
2023/06/10 14:00:08;;;;;;;4.22;3.50;;;;;;;;;;4966936;28;20033;-91
2023/06/10 14:02:36;;;;;;;5.32;3.88;;;;;;;;;;4966651;28;20042;-93
2023/06/10 14:05:02;;;;;;;5.65;3.83;;;;;;;;;;4969776;28;20050;-94
2023/06/10 14:07:28;;;;;;;6.75;3.67;;;;;;;;;;4966466;28;20035;-92
2023/06/10 14:09:54;;;;;;;6.50;3.83;;;;;;;;;;4959660;28;20030;-88
2023/06/10 14:12:22;;;;;;;5.32;3.42;;;;;;;;;;4971044;28;20089;-87
2023/06/10 14:14:50;;;;;;;6.75;3.20;;;;;;;;;;4964685;28;20069;-94
2023/06/10 14:17:16;;;;;;;5.93;3.78;;;;;;;;;;4969017;28;20101;-91
2023/06/10 14:19:42;;;;;;;5.72;3.63;;;;;;;;;;4967798;28;21753;-94
2023/06/10 14:22:08;;;;;;;6.88;3.55;;;;;;;;;;4962293;28;20037;-90
2023/06/10 14:24:35;;;;;;;5.07;3.20;;;;;;;;;;4968839;28;20123;-88
2023/06/10 14:27:04;;;;;;;4.13;3.60;;;;;;;;;;4967597;28;20082;-90
2023/06/10 14:29:31;;;;;;;4.95;3.70;;;;;;;;;;4965717;28;20030;-90
2023/06/10 14:31:57;;;;;;;3.67;3.38;;;;;;;;;;4964898;28;20126;-88
2023/06/10 14:34:28;;;;;;;5.82;3.53;;;;;;;;;;4966892;28;20118;-88
2023/06/10 14:36:54;;;;;;;5.50;3.78;;;;;;;;;;4947548;28;20035;-89
2023/06/10 14:39:20;;;;;;;5.25;3.60;;;;;;;;;;4965964;28;20026;-89